Elandra Oak — V7RD5 — position and weather

sailwx.info

Track history (hours):
 
Tides and Currents Weather Stations Pressure Air Temp Water Temp Dewpoint Dewpoint Depression Visibility Wind Speed Wind Dir Waves Ship Positions

Elandra Oak

Last reported at 2018-Apr-21 22:47 UTC. Time now 2018-Apr-24 16:24 UTC.
Position N 10°47' W 017°43'.

Length 183 m; draft 8.2 m.

Type: Ship. MMSI: 538006775.

Date/timePositionNaut miles runAvg speedWind from/ knotsBaromVisibWave heightAir tempDewpointWater temp
2018-Apr-21 22:47N 10°47' W 017°43'4711.7
2018-Apr-21 18:45N 10°09' W 017°14'412.7
2018-Apr-21 18:24N 10°06' W 017°11'3012.6
2018-Apr-21 16:02N 09°44' W 016°51'112.8
2018-Apr-21 15:59N 09°44' W 016°50'612.9
2018-Apr-21 15:30N 09°39' W 016°46'712.7
2018-Apr-21 14:57N 09°34' W 016°41'612.3
2018-Apr-21 14:30N 09°30' W 016°38'712.5
2018-Apr-21 13:56N 09°24' W 016°33'612.8
2018-Apr-21 13:29N 09°20' W 016°29'612.7
2018-Apr-21 13:00N 09°16' W 016°25'613.0
2018-Apr-21 12:31N 09°11' W 016°20'812.8
2018-Apr-21 11:55N 09°05' W 016°15'512.9
2018-Apr-21 11:30N 09°02' W 016°11'613.0
2018-Apr-21 11:01N 08°57' W 016°07'613.0
2018-Apr-21 10:31N 08°52' W 016°02'1214.3
2018-Apr-21 09:40N 08°43' W 015°54'213.7
2018-Apr-21 09:31N 08°42' W 015°53'6 4.2
2018-Apr-21 08:07N 08°38' W 015°49'1 7.2
2018-Apr-21 08:00N 08°37' W 015°48'712.8
2018-Apr-21 07:27N 08°32' W 015°43'1513.1
2018-Apr-21 06:21N 08°21' W 015°33'813.2
2018-Apr-21 05:44N 08°15' W 015°27'313.5
2018-Apr-21 05:30N 08°13' W 015°25'713.3
2018-Apr-21 05:00N 08°08' W 015°21'713.1
2018-Apr-21 04:29N 08°03' W 015°16'613.0
2018-Apr-21 04:01N 07°59' W 015°12'713.1
2018-Apr-21 03:31N 07°54' W 015°07'713.2
2018-Apr-21 03:00N 07°49' W 015°03'613.3
2018-Apr-21 02:31N 07°44' W 014°58'612.9
2018-Apr-21 02:01N 07°39' W 014°54'612.9
2018-Apr-21 01:31N 07°34' W 014°50'713.0
2018-Apr-21 01:01N 07°30' W 014°45'612.9
2018-Apr-21 00:31N 07°25' W 014°41'712.9
2018-Apr-20 23:59N 07°20' W 014°36'613.1
2018-Apr-20 23:31N 07°16' W 014°31'  
Track history (hours):
 
Tides and Currents Weather Stations Pressure Air Temp Water Temp Dewpoint Dewpoint Depression Visibility Wind Speed Wind Dir Waves Ship Positions

Elandra Oak

Last reported at 2018-Apr-21 22:47 UTC. Time now 2018-Apr-24 16:24 UTC.
Position N 10°47' W 017°43'.

Length 183 m; draft 8.2 m.

Type: Ship. MMSI: 538006775.

Date/timePositionNaut miles runAvg speedWind from/ knotsBaromVisibWave heightAir tempDewpointWater temp
2018-Apr-21 22:47N 10°47' W 017°43'4711.7
2018-Apr-21 18:45N 10°09' W 017°14'412.7
2018-Apr-21 18:24N 10°06' W 017°11'3012.6
2018-Apr-21 16:02N 09°44' W 016°51'112.8
2018-Apr-21 15:59N 09°44' W 016°50'612.9
2018-Apr-21 15:30N 09°39' W 016°46'712.7
2018-Apr-21 14:57N 09°34' W 016°41'612.3
2018-Apr-21 14:30N 09°30' W 016°38'712.5
2018-Apr-21 13:56N 09°24' W 016°33'612.8
2018-Apr-21 13:29N 09°20' W 016°29'612.7
2018-Apr-21 13:00N 09°16' W 016°25'613.0
2018-Apr-21 12:31N 09°11' W 016°20'812.8
2018-Apr-21 11:55N 09°05' W 016°15'512.9
2018-Apr-21 11:30N 09°02' W 016°11'613.0
2018-Apr-21 11:01N 08°57' W 016°07'613.0
2018-Apr-21 10:31N 08°52' W 016°02'1214.3
2018-Apr-21 09:40N 08°43' W 015°54'213.7
2018-Apr-21 09:31N 08°42' W 015°53'6 4.2
2018-Apr-21 08:07N 08°38' W 015°49'1 7.2
2018-Apr-21 08:00N 08°37' W 015°48'712.8
2018-Apr-21 07:27N 08°32' W 015°43'1513.1
2018-Apr-21 06:21N 08°21' W 015°33'813.2
2018-Apr-21 05:44N 08°15' W 015°27'313.5
2018-Apr-21 05:30N 08°13' W 015°25'713.3
2018-Apr-21 05:00N 08°08' W 015°21'713.1
2018-Apr-21 04:29N 08°03' W 015°16'613.0
2018-Apr-21 04:01N 07°59' W 015°12'713.1
2018-Apr-21 03:31N 07°54' W 015°07'713.2
2018-Apr-21 03:00N 07°49' W 015°03'613.3
2018-Apr-21 02:31N 07°44' W 014°58'612.9
2018-Apr-21 02:01N 07°39' W 014°54'612.9
2018-Apr-21 01:31N 07°34' W 014°50'713.0
2018-Apr-21 01:01N 07°30' W 014°45'612.9
2018-Apr-21 00:31N 07°25' W 014°41'712.9
2018-Apr-20 23:59N 07°20' W 014°36'613.1
2018-Apr-20 23:31N 07°16' W 014°31'  

Dump ship's entire track history